sensor_id;sensor_type;location;lat;lon;timestamp;P1;durP1;ratioP1;P2;durP2;ratioP2
13102;SDS011;52970;46.752;17.108;2023-05-10T00:01:20;3.08;;;2.88;;
13102;SDS011;52970;46.752;17.108;2023-05-10T00:03:45;3.30;;;3.00;;
13102;SDS011;52970;46.752;17.108;2023-05-10T00:06:11;4.15;;;3.10;;
13102;SDS011;52970;46.752;17.108;2023-05-10T00:08:37;4.82;;;3.28;;
13102;SDS011;52970;46.752;17.108;2023-05-10T00:11:02;3.40;;;3.20;;
13102;SDS011;52970;46.752;17.108;2023-05-10T00:13:27;5.00;;;4.50;;
13102;SDS011;52970;46.752;17.108;2023-05-10T00:15:52;3.60;;;3.30;;
13102;SDS011;52970;46.752;17.108;2023-05-10T00:18:18;4.38;;;3.55;;
13102;SDS011;52970;46.752;17.108;2023-05-10T00:20:43;3.50;;;3.20;;
13102;SDS011;52970;46.752;17.108;2023-05-10T00:23:11;3.47;;;3.20;;
13102;SDS011;52970;46.752;17.108;2023-05-10T00:25:36;4.03;;;3.63;;
13102;SDS011;52970;46.752;17.108;2023-05-10T00:28:01;3.50;;;3.20;;
13102;SDS011;52970;46.752;17.108;2023-05-10T00:30:26;4.07;;;3.67;;
13102;SDS011;52970;46.752;17.108;2023-05-10T00:32:53;3.88;;;3.55;;
13102;SDS011;52970;46.752;17.108;2023-05-10T00:35:18;4.60;;;3.75;;
13102;SDS011;52970;46.752;17.108;2023-05-10T00:37:43;4.05;;;3.65;;
13102;SDS011;52970;46.752;17.108;2023-05-10T00:40:08;4.13;;;3.70;;
13102;SDS011;52970;46.752;17.108;2023-05-10T00:42:34;3.70;;;3.40;;
13102;SDS011;52970;46.752;17.108;2023-05-10T00:44:59;3.50;;;3.20;;
13102;SDS011;52970;46.752;17.108;2023-05-10T00:47:24;3.65;;;3.35;;
13102;SDS011;52970;46.752;17.108;2023-05-10T00:49:50;4.00;;;3.58;;
13102;SDS011;52970;46.752;17.108;2023-05-10T00:52:15;3.35;;;3.05;;
13102;SDS011;52970;46.752;17.108;2023-05-10T00:54:41;3.65;;;3.03;;
13102;SDS011;52970;46.752;17.108;2023-05-10T00:57:06;3.63;;;3.33;;
13102;SDS011;52970;46.752;17.108;2023-05-10T00:59:31;3.67;;;3.30;;
13102;SDS011;52970;46.752;17.108;2023-05-10T01:01:57;3.85;;;3.42;;
13102;SDS011;52970;46.752;17.108;2023-05-10T01:04:22;3.60;;;3.30;;
13102;SDS011;52970;46.752;17.108;2023-05-10T01:06:50;4.72;;;3.00;;
13102;SDS011;52970;46.752;17.108;2023-05-10T01:09:16;3.90;;;3.28;;
13102;SDS011;52970;46.752;17.108;2023-05-10T01:11:42;6.00;;;3.53;;
13102;SDS011;52970;46.752;17.108;2023-05-10T01:14:07;3.97;;;3.28;;
13102;SDS011;52970;46.752;17.108;2023-05-10T01:16:33;4.78;;;3.63;;
13102;SDS011;52970;46.752;17.108;2023-05-10T01:19:00;4.28;;;3.88;;
13102;SDS011;52970;46.752;17.108;2023-05-10T01:37:13;4.18;;;3.70;;
13102;SDS011;52970;46.752;17.108;2023-05-10T01:39:44;4.20;;;3.70;;
13102;SDS011;52970;46.752;17.108;2023-05-10T01:42:11;4.10;;;3.70;;
13102;SDS011;52970;46.752;17.108;2023-05-10T01:45:02;3.58;;;3.28;;
13102;SDS011;52970;46.752;17.108;2023-05-10T01:47:30;3.97;;;3.58;;
13102;SDS011;52970;46.752;17.108;2023-05-10T01:50:01;6.47;;;3.90;;
13102;SDS011;52970;46.752;17.108;2023-05-10T01:52:30;3.45;;;3.15;;
13102;SDS011;52970;46.752;17.108;2023-05-10T01:55:11;4.20;;;3.80;;
13102;SDS011;52970;46.752;17.108;2023-05-10T01:57:38;5.28;;;3.80;;
13102;SDS011;52970;46.752;17.108;2023-05-10T02:00:04;3.95;;;3.50;;
13102;SDS011;52970;46.752;17.108;2023-05-10T02:02:33;4.70;;;3.30;;
13102;SDS011;52970;46.752;17.108;2023-05-10T02:04:58;3.67;;;3.38;;
13102;SDS011;52970;46.752;17.108;2023-05-10T02:07:24;5.22;;;3.63;;
13102;SDS011;52970;46.752;17.108;2023-05-10T02:09:51;4.15;;;3.72;;
13102;SDS011;52970;46.752;17.108;2023-05-10T02:12:16;4.07;;;3.67;;
13102;SDS011;52970;46.752;17.108;2023-05-10T02:14:42;3.92;;;3.60;;
13102;SDS011;52970;46.752;17.108;2023-05-10T02:17:09;4.03;;;3.65;;
13102;SDS011;52970;46.752;17.108;2023-05-10T02:19:35;4.25;;;3.85;;
13102;SDS011;52970;46.752;17.108;2023-05-10T02:22:02;3.67;;;3.35;;
13102;SDS011;52970;46.752;17.108;2023-05-10T02:24:28;3.50;;;3.20;;
13102;SDS011;52970;46.752;17.108;2023-05-10T02:26:54;4.28;;;3.58;;
13102;SDS011;52970;46.752;17.108;2023-05-10T02:29:20;4.93;;;4.32;;
13102;SDS011;52970;46.752;17.108;2023-05-10T02:31:48;4.45;;;4.05;;
13102;SDS011;52970;46.752;17.108;2023-05-10T02:34:15;4.15;;;3.85;;
13102;SDS011;52970;46.752;17.108;2023-05-10T02:36:41;4.63;;;3.97;;
13102;SDS011;52970;46.752;17.108;2023-05-10T02:39:06;4.47;;;3.95;;
13102;SDS011;52970;46.752;17.108;2023-05-10T02:41:37;3.75;;;3.45;;
13102;SDS011;52970;46.752;17.108;2023-05-10T02:44:04;4.47;;;4.07;;
13102;SDS011;52970;46.752;17.108;2023-05-10T02:46:31;4.68;;;4.28;;
13102;SDS011;52970;46.752;17.108;2023-05-10T02:48:57;6.55;;;4.22;;
13102;SDS011;52970;46.752;17.108;2023-05-10T02:51:24;5.13;;;4.45;;
13102;SDS011;52970;46.752;17.108;2023-05-10T02:53:50;5.50;;;4.50;;
13102;SDS011;52970;46.752;17.108;2023-05-10T02:56:31;4.40;;;4.00;;
13102;SDS011;52970;46.752;17.108;2023-05-10T02:58:58;4.93;;;4.47;;
13102;SDS011;52970;46.752;17.108;2023-05-10T03:01:23;4.50;;;4.10;;
13102;SDS011;52970;46.752;17.108;2023-05-10T03:03:48;5.85;;;4.80;;
13102;SDS011;52970;46.752;17.108;2023-05-10T03:06:14;5.10;;;4.60;;
13102;SDS011;52970;46.752;17.108;2023-05-10T03:08:39;5.35;;;4.85;;
13102;SDS011;52970;46.752;17.108;2023-05-10T03:16:16;5.28;;;4.75;;
13102;SDS011;52970;46.752;17.108;2023-05-10T03:18:53;5.90;;;4.43;;
13102;SDS011;52970;46.752;17.108;2023-05-10T03:21:19;5.35;;;4.78;;
13102;SDS011;52970;46.752;17.108;2023-05-10T03:23:50;6.00;;;4.43;;
13102;SDS011;52970;46.752;17.108;2023-05-10T03:26:26;5.55;;;4.35;;
13102;SDS011;52970;46.752;17.108;2023-05-10T03:28:51;4.57;;;4.03;;
13102;SDS011;52970;46.752;17.108;2023-05-10T03:31:17;5.47;;;4.97;;
13102;SDS011;52970;46.752;17.108;2023-05-10T03:33:46;5.15;;;4.75;;
13102;SDS011;52970;46.752;17.108;2023-05-10T03:36:12;4.82;;;4.43;;
13102;SDS011;52970;46.752;17.108;2023-05-10T03:38:37;6.57;;;4.63;;
13102;SDS011;52970;46.752;17.108;2023-05-10T03:41:02;6.55;;;4.57;;
13102;SDS011;52970;46.752;17.108;2023-05-10T03:43:28;5.13;;;4.63;;
13102;SDS011;52970;46.752;17.108;2023-05-10T03:45:53;5.03;;;4.53;;
13102;SDS011;52970;46.752;17.108;2023-05-10T03:48:18;6.60;;;4.30;;
13102;SDS011;52970;46.752;17.108;2023-05-10T03:50:44;8.07;;;7.28;;
13102;SDS011;52970;46.752;17.108;2023-05-10T03:53:09;4.57;;;4.03;;
13102;SDS011;52970;46.752;17.108;2023-05-10T03:55:34;5.75;;;5.25;;
13102;SDS011;52970;46.752;17.108;2023-05-10T03:58:01;4.25;;;3.90;;
13102;SDS011;52970;46.752;17.108;2023-05-10T04:00:26;5.30;;;4.80;;
13102;SDS011;52970;46.752;17.108;2023-05-10T04:02:52;4.93;;;4.53;;
13102;SDS011;52970;46.752;17.108;2023-05-10T04:05:17;4.95;;;4.15;;
13102;SDS011;52970;46.752;17.108;2023-05-10T04:07:42;6.80;;;5.30;;
13102;SDS011;52970;46.752;17.108;2023-05-10T04:10:10;6.10;;;5.30;;
13102;SDS011;52970;46.752;17.108;2023-05-10T04:12:36;8.18;;;6.25;;
13102;SDS011;52970;46.752;17.108;2023-05-10T04:15:01;8.23;;;7.43;;
13102;SDS011;52970;46.752;17.108;2023-05-10T04:17:26;10.93;;;6.85;;
13102;SDS011;52970;46.752;17.108;2023-05-10T04:19:51;9.05;;;8.10;;
13102;SDS011;52970;46.752;17.108;2023-05-10T04:22:19;7.80;;;7.00;;
13102;SDS011;52970;46.752;17.108;2023-05-10T04:24:45;8.27;;;7.28;;
13102;SDS011;52970;46.752;17.108;2023-05-10T04:27:10;7.88;;;6.38;;
13102;SDS011;52970;46.752;17.108;2023-05-10T04:29:38;6.35;;;5.50;;
13102;SDS011;52970;46.752;17.108;2023-05-10T04:32:03;6.82;;;4.75;;
13102;SDS011;52970;46.752;17.108;2023-05-10T04:34:28;5.38;;;4.78;;
13102;SDS011;52970;46.752;17.108;2023-05-10T04:36:54;5.68;;;4.70;;
13102;SDS011;52970;46.752;17.108;2023-05-10T04:39:19;6.78;;;4.85;;
13102;SDS011;52970;46.752;17.108;2023-05-10T04:41:45;4.95;;;4.55;;
13102;SDS011;52970;46.752;17.108;2023-05-10T04:44:10;6.72;;;5.28;;
13102;SDS011;52970;46.752;17.108;2023-05-10T04:46:35;5.82;;;5.22;;
13102;SDS011;52970;46.752;17.108;2023-05-10T04:49:01;6.28;;;4.70;;
13102;SDS011;52970;46.752;17.108;2023-05-10T04:51:26;5.05;;;4.38;;
13102;SDS011;52970;46.752;17.108;2023-05-10T04:53:51;5.85;;;5.13;;
13102;SDS011;52970;46.752;17.108;2023-05-10T04:56:17;5.13;;;4.63;;
13102;SDS011;52970;46.752;17.108;2023-05-10T04:58:42;6.20;;;5.60;;
13102;SDS011;52970;46.752;17.108;2023-05-10T05:01:07;6.15;;;5.10;;
13102;SDS011;52970;46.752;17.108;2023-05-10T05:03:35;5.70;;;5.20;;
13102;SDS011;52970;46.752;17.108;2023-05-10T05:06:01;6.03;;;5.10;;
13102;SDS011;52970;46.752;17.108;2023-05-10T05:08:26;7.55;;;5.40;;
13102;SDS011;52970;46.752;17.108;2023-05-10T05:10:51;5.90;;;5.07;;
13102;SDS011;52970;46.752;17.108;2023-05-10T05:13:17;6.47;;;5.38;;
13102;SDS011;52970;46.752;17.108;2023-05-10T05:15:42;6.57;;;5.97;;
13102;SDS011;52970;46.752;17.108;2023-05-10T05:18:07;8.50;;;6.47;;
13102;SDS011;52970;46.752;17.108;2023-05-10T05:20:33;8.35;;;6.32;;
13102;SDS011;52970;46.752;17.108;2023-05-10T05:22:59;7.38;;;6.07;;
13102;SDS011;52970;46.752;17.108;2023-05-10T05:25:24;7.25;;;6.53;;
13102;SDS011;52970;46.752;17.108;2023-05-10T05:27:49;8.63;;;6.72;;
13102;SDS011;52970;46.752;17.108;2023-05-10T05:30:15;6.95;;;5.90;;
13102;SDS011;52970;46.752;17.108;2023-05-10T05:32:40;8.02;;;6.68;;
13102;SDS011;52970;46.752;17.108;2023-05-10T05:35:05;6.88;;;6.20;;
13102;SDS011;52970;46.752;17.108;2023-05-10T05:37:31;7.70;;;6.45;;
13102;SDS011;52970;46.752;17.108;2023-05-10T05:39:56;6.75;;;6.15;;
13102;SDS011;52970;46.752;17.108;2023-05-10T05:42:21;8.65;;;6.63;;
13102;SDS011;52970;46.752;17.108;2023-05-10T05:44:47;6.55;;;5.30;;
13102;SDS011;52970;46.752;17.108;2023-05-10T05:47:12;7.28;;;6.53;;
13102;SDS011;52970;46.752;17.108;2023-05-10T05:49:37;6.75;;;6.13;;
13102;SDS011;52970;46.752;17.108;2023-05-10T05:52:03;6.78;;;6.05;;
13102;SDS011;52970;46.752;17.108;2023-05-10T05:54:29;6.43;;;5.72;;
13102;SDS011;52970;46.752;17.108;2023-05-10T05:56:54;7.32;;;5.90;;
13102;SDS011;52970;46.752;17.108;2023-05-10T05:59:20;6.72;;;6.03;;
13102;SDS011;52970;46.752;17.108;2023-05-10T06:01:45;8.15;;;6.50;;
13102;SDS011;52970;46.752;17.108;2023-05-10T06:04:11;6.15;;;5.55;;
13102;SDS011;52970;46.752;17.108;2023-05-10T06:06:36;6.20;;;5.60;;
13102;SDS011;52970;46.752;17.108;2023-05-10T06:09:01;7.32;;;5.85;;
13102;SDS011;52970;46.752;17.108;2023-05-10T06:11:26;5.93;;;5.35;;
13102;SDS011;52970;46.752;17.108;2023-05-10T06:13:52;6.45;;;5.82;;
13102;SDS011;52970;46.752;17.108;2023-05-10T06:16:17;9.30;;;5.80;;
13102;SDS011;52970;46.752;17.108;2023-05-10T06:18:43;7.18;;;6.10;;
13102;SDS011;52970;46.752;17.108;2023-05-10T06:21:08;6.88;;;5.20;;
13102;SDS011;52970;46.752;17.108;2023-05-10T06:23:34;5.82;;;5.22;;
13102;SDS011;52970;46.752;17.108;2023-05-10T06:25:59;6.63;;;5.93;;
13102;SDS011;52970;46.752;17.108;2023-05-10T06:28:25;5.88;;;5.25;;
13102;SDS011;52970;46.752;17.108;2023-05-10T06:30:50;7.28;;;5.15;;
13102;SDS011;52970;46.752;17.108;2023-05-10T06:33:15;5.78;;;5.20;;
13102;SDS011;52970;46.752;17.108;2023-05-10T06:35:41;5.63;;;5.03;;
13102;SDS011;52970;46.752;17.108;2023-05-10T06:38:06;7.10;;;5.20;;
13102;SDS011;52970;46.752;17.108;2023-05-10T06:40:31;6.88;;;4.97;;
13102;SDS011;52970;46.752;17.108;2023-05-10T06:42:57;5.82;;;5.13;;
13102;SDS011;52970;46.752;17.108;2023-05-10T06:45:23;6.90;;;4.93;;
13102;SDS011;52970;46.752;17.108;2023-05-10T06:47:48;5.00;;;4.50;;
13102;SDS011;52970;46.752;17.108;2023-05-10T06:50:13;5.70;;;5.20;;
13102;SDS011;52970;46.752;17.108;2023-05-10T06:52:38;5.55;;;5.05;;
13102;SDS011;52970;46.752;17.108;2023-05-10T06:55:04;5.00;;;4.60;;
13102;SDS011;52970;46.752;17.108;2023-05-10T06:57:29;5.60;;;5.10;;
13102;SDS011;52970;46.752;17.108;2023-05-10T06:59:55;6.43;;;5.18;;
13102;SDS011;52970;46.752;17.108;2023-05-10T07:02:23;5.47;;;4.95;;
13102;SDS011;52970;46.752;17.108;2023-05-10T07:04:48;7.72;;;5.32;;
13102;SDS011;52970;46.752;17.108;2023-05-10T07:07:14;6.05;;;4.88;;
13102;SDS011;52970;46.752;17.108;2023-05-10T07:09:39;4.97;;;4.57;;
13102;SDS011;52970;46.752;17.108;2023-05-10T07:12:05;5.10;;;4.60;;
13102;SDS011;52970;46.752;17.108;2023-05-10T07:14:30;5.68;;;4.70;;
13102;SDS011;52970;46.752;17.108;2023-05-10T07:16:55;4.70;;;4.30;;
13102;SDS011;52970;46.752;17.108;2023-05-10T07:19:20;4.78;;;4.32;;
13102;SDS011;52970;46.752;17.108;2023-05-10T07:21:46;4.95;;;4.20;;
13102;SDS011;52970;46.752;17.108;2023-05-10T07:24:11;5.60;;;4.50;;
13102;SDS011;52970;46.752;17.108;2023-05-10T07:26:36;5.45;;;4.30;;
13102;SDS011;52970;46.752;17.108;2023-05-10T07:29:02;4.88;;;4.40;;
13102;SDS011;52970;46.752;17.108;2023-05-10T07:31:28;6.20;;;4.85;;
13102;SDS011;52970;46.752;17.108;2023-05-10T07:33:53;4.65;;;4.15;;
13102;SDS011;52970;46.752;17.108;2023-05-10T07:36:18;4.85;;;4.30;;
13102;SDS011;52970;46.752;17.108;2023-05-10T07:38:43;4.43;;;4.03;;
13102;SDS011;52970;46.752;17.108;2023-05-10T07:41:09;6.53;;;4.18;;
13102;SDS011;52970;46.752;17.108;2023-05-10T07:43:34;4.88;;;4.32;;
13102;SDS011;52970;46.752;17.108;2023-05-10T07:46:00;5.13;;;4.43;;
13102;SDS011;52970;46.752;17.108;2023-05-10T07:48:25;5.28;;;4.28;;
13102;SDS011;52970;46.752;17.108;2023-05-10T07:50:51;6.00;;;5.00;;
13102;SDS011;52970;46.752;17.108;2023-05-10T07:53:16;4.80;;;4.40;;
13102;SDS011;52970;46.752;17.108;2023-05-10T07:55:43;4.22;;;3.83;;
13102;SDS011;52970;46.752;17.108;2023-05-10T07:58:08;7.38;;;4.80;;
13102;SDS011;52970;46.752;17.108;2023-05-10T08:00:33;3.72;;;3.50;;
13102;SDS011;52970;46.752;17.108;2023-05-10T08:02:59;4.18;;;3.72;;
13102;SDS011;52970;46.752;17.108;2023-05-10T08:05:24;4.07;;;3.78;;
13102;SDS011;52970;46.752;17.108;2023-05-10T08:07:49;3.60;;;3.30;;
13102;SDS011;52970;46.752;17.108;2023-05-10T08:10:15;4.45;;;3.60;;
13102;SDS011;52970;46.752;17.108;2023-05-10T08:12:40;3.67;;;3.38;;
13102;SDS011;52970;46.752;17.108;2023-05-10T08:15:05;3.42;;;2.95;;
13102;SDS011;52970;46.752;17.108;2023-05-10T08:17:31;3.67;;;3.38;;
13102;SDS011;52970;46.752;17.108;2023-05-10T08:19:57;3.40;;;3.10;;
13102;SDS011;52970;46.752;17.108;2023-05-10T08:22:22;3.10;;;2.90;;
13102;SDS011;52970;46.752;17.108;2023-05-10T08:24:47;3.28;;;2.97;;
13102;SDS011;52970;46.752;17.108;2023-05-10T08:27:13;3.20;;;3.00;;
13102;SDS011;52970;46.752;17.108;2023-05-10T08:29:38;3.13;;;2.92;;
13102;SDS011;52970;46.752;17.108;2023-05-10T08:32:03;3.63;;;3.33;;
13102;SDS011;52970;46.752;17.108;2023-05-10T08:34:29;4.40;;;3.10;;
13102;SDS011;52970;46.752;17.108;2023-05-10T08:36:56;3.78;;;3.28;;
13102;SDS011;52970;46.752;17.108;2023-05-10T08:39:21;3.08;;;2.75;;
13102;SDS011;52970;46.752;17.108;2023-05-10T08:41:46;6.25;;;3.58;;
13102;SDS011;52970;46.752;17.108;2023-05-10T08:44:11;3.08;;;2.85;;
13102;SDS011;52970;46.752;17.108;2023-05-10T08:46:37;3.75;;;2.92;;
13102;SDS011;52970;46.752;17.108;2023-05-10T08:49:04;3.90;;;2.75;;
13102;SDS011;52970;46.752;17.108;2023-05-10T08:51:32;3.10;;;2.90;;
13102;SDS011;52970;46.752;17.108;2023-05-10T08:54:00;3.35;;;3.05;;
13102;SDS011;52970;46.752;17.108;2023-05-10T08:56:26;3.45;;;3.15;;
13102;SDS011;52970;46.752;17.108;2023-05-10T08:58:51;5.28;;;2.80;;
13102;SDS011;52970;46.752;17.108;2023-05-10T09:01:16;6.28;;;3.30;;
13102;SDS011;52970;46.752;17.108;2023-05-10T09:03:43;3.20;;;2.90;;
13102;SDS011;52970;46.752;17.108;2023-05-10T09:06:08;2.88;;;2.67;;
13102;SDS011;52970;46.752;17.108;2023-05-10T09:08:34;3.10;;;2.80;;
13102;SDS011;52970;46.752;17.108;2023-05-10T09:10:59;3.17;;;2.88;;
13102;SDS011;52970;46.752;17.108;2023-05-10T09:13:26;3.17;;;2.92;;
13102;SDS011;52970;46.752;17.108;2023-05-10T09:15:51;3.42;;;2.97;;
13102;SDS011;52970;46.752;17.108;2023-05-10T09:18:16;2.97;;;2.67;;
13102;SDS011;52970;46.752;17.108;2023-05-10T09:20:42;3.70;;;2.90;;
13102;SDS011;52970;46.752;17.108;2023-05-10T09:23:07;3.35;;;3.08;;
13102;SDS011;52970;46.752;17.108;2023-05-10T09:25:33;3.28;;;3.00;;
13102;SDS011;52970;46.752;17.108;2023-05-10T09:27:58;4.82;;;3.47;;
13102;SDS011;52970;46.752;17.108;2023-05-10T09:30:27;3.38;;;3.10;;
13102;SDS011;52970;46.752;17.108;2023-05-10T09:32:53;3.88;;;3.50;;
13102;SDS011;52970;46.752;17.108;2023-05-10T09:35:21;3.38;;;3.17;;
13102;SDS011;52970;46.752;17.108;2023-05-10T09:37:49;3.80;;;3.03;;
13102;SDS011;52970;46.752;17.108;2023-05-10T09:40:15;3.08;;;2.88;;
13102;SDS011;52970;46.752;17.108;2023-05-10T09:45:19;2.80;;;2.60;;
13102;SDS011;52970;46.752;17.108;2023-05-10T09:47:45;3.20;;;3.00;;
13102;SDS011;52970;46.752;17.108;2023-05-10T09:50:10;3.30;;;3.10;;
13102;SDS011;52970;46.752;17.108;2023-05-10T09:52:52;3.40;;;3.10;;
13102;SDS011;52970;46.752;17.108;2023-05-10T09:55:18;3.38;;;3.08;;
13102;SDS011;52970;46.752;17.108;2023-05-10T09:57:44;4.95;;;3.38;;
13102;SDS011;52970;46.752;17.108;2023-05-10T10:00:09;4.00;;;3.20;;
13102;SDS011;52970;46.752;17.108;2023-05-10T10:02:38;5.22;;;3.03;;
13102;SDS011;52970;46.752;17.108;2023-05-10T10:05:03;3.72;;;3.20;;
13102;SDS011;52970;46.752;17.108;2023-05-10T10:07:31;3.15;;;2.95;;
13102;SDS011;52970;46.752;17.108;2023-05-10T10:09:56;3.33;;;3.08;;
13102;SDS011;52970;46.752;17.108;2023-05-10T10:12:23;3.70;;;3.22;;
13102;SDS011;52970;46.752;17.108;2023-05-10T10:14:48;3.17;;;2.97;;
13102;SDS011;52970;46.752;17.108;2023-05-10T10:17:15;3.40;;;3.10;;
13102;SDS011;52970;46.752;17.108;2023-05-10T10:19:41;5.32;;;3.30;;
13102;SDS011;52970;46.752;17.108;2023-05-10T10:22:06;4.55;;;3.38;;
13102;SDS011;52970;46.752;17.108;2023-05-10T10:24:31;3.25;;;3.03;;
13102;SDS011;52970;46.752;17.108;2023-05-10T10:26:58;4.43;;;3.30;;
13102;SDS011;52970;46.752;17.108;2023-05-10T10:29:33;3.15;;;2.95;;
13102;SDS011;52970;46.752;17.108;2023-05-10T10:32:24;3.78;;;3.20;;
13102;SDS011;52970;46.752;17.108;2023-05-10T10:34:46;4.63;;;3.28;;
13102;SDS011;52970;46.752;17.108;2023-05-10T10:37:11;3.13;;;2.80;;
13102;SDS011;52970;46.752;17.108;2023-05-10T10:39:36;5.53;;;3.50;;
13102;SDS011;52970;46.752;17.108;2023-05-10T10:42:02;3.30;;;3.00;;
13102;SDS011;52970;46.752;17.108;2023-05-10T10:55:07;3.10;;;2.90;;
13102;SDS011;52970;46.752;17.108;2023-05-10T11:02:49;3.90;;;3.35;;
13102;SDS011;52970;46.752;17.108;2023-05-10T11:07:55;3.40;;;2.90;;
13102;SDS011;52970;46.752;17.108;2023-05-10T11:10:21;3.10;;;2.90;;
13102;SDS011;52970;46.752;17.108;2023-05-10T11:12:51;3.38;;;3.17;;
13102;SDS011;52970;46.752;17.108;2023-05-10T11:15:16;3.88;;;3.58;;
13102;SDS011;52970;46.752;17.108;2023-05-10T11:17:41;3.90;;;3.30;;
13102;SDS011;52970;46.752;17.108;2023-05-10T11:20:10;4.05;;;3.45;;
13102;SDS011;52970;46.752;17.108;2023-05-10T11:23:47;4.03;;;3.58;;
13102;SDS011;52970;46.752;17.108;2023-05-10T11:25:30;3.90;;;3.58;;
13102;SDS011;52970;46.752;17.108;2023-05-10T11:27:55;3.90;;;3.65;;
13102;SDS011;52970;46.752;17.108;2023-05-10T11:30:21;3.60;;;3.30;;
13102;SDS011;52970;46.752;17.108;2023-05-10T11:32:47;4.88;;;3.20;;
13102;SDS011;52970;46.752;17.108;2023-05-10T11:35:12;4.47;;;3.95;;
13102;SDS011;52970;46.752;17.108;2023-05-10T11:37:38;4.25;;;3.78;;
13102;SDS011;52970;46.752;17.108;2023-05-10T11:40:09;4.13;;;3.72;;
13102;SDS011;52970;46.752;17.108;2023-05-10T11:42:37;4.32;;;4.03;;
13102;SDS011;52970;46.752;17.108;2023-05-10T11:45:03;4.63;;;4.32;;
13102;SDS011;52970;46.752;17.108;2023-05-10T11:47:28;4.22;;;3.83;;
13102;SDS011;52970;46.752;17.108;2023-05-10T11:49:54;4.53;;;4.13;;
13102;SDS011;52970;46.752;17.108;2023-05-10T11:52:19;4.30;;;4.00;;
13102;SDS011;52970;46.752;17.108;2023-05-10T11:54:51;6.45;;;4.05;;
13102;SDS011;52970;46.752;17.108;2023-05-10T11:57:18;4.07;;;3.67;;
13102;SDS011;52970;46.752;17.108;2023-05-10T11:59:43;3.60;;;3.30;;
13102;SDS011;52970;46.752;17.108;2023-05-10T12:02:09;4.00;;;3.60;;
13102;SDS011;52970;46.752;17.108;2023-05-10T12:04:34;4.30;;;3.72;;
13102;SDS011;52970;46.752;17.108;2023-05-10T12:07:00;4.00;;;3.58;;
13102;SDS011;52970;46.752;17.108;2023-05-10T12:09:25;3.53;;;3.15;;
13102;SDS011;52970;46.752;17.108;2023-05-10T12:11:51;3.20;;;2.92;;
13102;SDS011;52970;46.752;17.108;2023-05-10T12:14:20;3.42;;;2.58;;
13102;SDS011;52970;46.752;17.108;2023-05-10T12:16:46;5.00;;;3.10;;
13102;SDS011;52970;46.752;17.108;2023-05-10T12:19:12;3.45;;;3.10;;
13102;SDS011;52970;46.752;17.108;2023-05-10T12:21:37;4.38;;;2.97;;
13102;SDS011;52970;46.752;17.108;2023-05-10T12:24:03;3.95;;;2.72;;
13102;SDS011;52970;46.752;17.108;2023-05-10T12:26:30;3.30;;;2.67;;
13102;SDS011;52970;46.752;17.108;2023-05-10T12:29:01;3.08;;;2.83;;
13102;SDS011;52970;46.752;17.108;2023-05-10T12:31:48;3.05;;;2.85;;
13102;SDS011;52970;46.752;17.108;2023-05-10T12:34:22;2.83;;;2.63;;
13102;SDS011;52970;46.752;17.108;2023-05-10T12:36:49;3.30;;;3.00;;
13102;SDS011;52970;46.752;17.108;2023-05-10T12:39:15;3.13;;;2.83;;
13102;SDS011;52970;46.752;17.108;2023-05-10T12:41:40;3.10;;;2.83;;
13102;SDS011;52970;46.752;17.108;2023-05-10T12:44:05;4.07;;;2.90;;
13102;SDS011;52970;46.752;17.108;2023-05-10T12:46:31;2.70;;;2.53;;
13102;SDS011;52970;46.752;17.108;2023-05-10T12:48:56;3.25;;;2.95;;
13102;SDS011;52970;46.752;17.108;2023-05-10T12:51:22;3.70;;;2.70;;
13102;SDS011;52970;46.752;17.108;2023-05-10T12:53:47;3.33;;;2.85;;
13102;SDS011;52970;46.752;17.108;2023-05-10T12:56:13;2.53;;;2.40;;
13102;SDS011;52970;46.752;17.108;2023-05-10T12:58:38;4.00;;;3.00;;
13102;SDS011;52970;46.752;17.108;2023-05-10T13:01:04;3.33;;;3.03;;
13102;SDS011;52970;46.752;17.108;2023-05-10T13:03:30;2.72;;;2.53;;
13102;SDS011;52970;46.752;17.108;2023-05-10T13:05:55;2.60;;;2.40;;
13102;SDS011;52970;46.752;17.108;2023-05-10T13:08:20;2.95;;;2.70;;
13102;SDS011;52970;46.752;17.108;2023-05-10T13:10:45;4.30;;;2.80;;
13102;SDS011;52970;46.752;17.108;2023-05-10T13:13:11;3.00;;;2.58;;
13102;SDS011;52970;46.752;17.108;2023-05-10T13:15:36;4.10;;;2.92;;
13102;SDS011;52970;46.752;17.108;2023-05-10T13:18:02;3.47;;;2.80;;
13102;SDS011;52970;46.752;17.108;2023-05-10T13:20:27;3.53;;;3.08;;
13102;SDS011;52970;46.752;17.108;2023-05-10T13:22:52;3.92;;;2.92;;
13102;SDS011;52970;46.752;17.108;2023-05-10T13:25:18;3.08;;;2.88;;
13102;SDS011;52970;46.752;17.108;2023-05-10T13:27:43;2.60;;;2.40;;
13102;SDS011;52970;46.752;17.108;2023-05-10T13:30:08;4.63;;;2.60;;
13102;SDS011;52970;46.752;17.108;2023-05-10T13:32:34;2.80;;;2.60;;
13102;SDS011;52970;46.752;17.108;2023-05-10T13:34:59;2.55;;;2.35;;
13102;SDS011;52970;46.752;17.108;2023-05-10T13:37:25;2.88;;;2.53;;
13102;SDS011;52970;46.752;17.108;2023-05-10T13:39:50;2.72;;;2.53;;
13102;SDS011;52970;46.752;17.108;2023-05-10T13:42:15;4.95;;;2.90;;
13102;SDS011;52970;46.752;17.108;2023-05-10T13:44:40;2.88;;;2.67;;
13102;SDS011;52970;46.752;17.108;2023-05-10T13:47:06;3.38;;;2.72;;
13102;SDS011;52970;46.752;17.108;2023-05-10T13:49:31;3.33;;;2.65;;
13102;SDS011;52970;46.752;17.108;2023-05-10T13:51:57;3.78;;;2.95;;
13102;SDS011;52970;46.752;17.108;2023-05-10T13:54:23;3.00;;;2.80;;
13102;SDS011;52970;46.752;17.108;2023-05-10T13:56:48;2.80;;;2.60;;
13102;SDS011;52970;46.752;17.108;2023-05-10T13:59:13;2.80;;;2.63;;
13102;SDS011;52970;46.752;17.108;2023-05-10T14:01:39;3.05;;;2.85;;
13102;SDS011;52970;46.752;17.108;2023-05-10T14:04:04;3.10;;;2.80;;
13102;SDS011;52970;46.752;17.108;2023-05-10T14:06:29;3.78;;;2.50;;
13102;SDS011;52970;46.752;17.108;2023-05-10T14:08:55;4.55;;;2.90;;
13102;SDS011;52970;46.752;17.108;2023-05-10T14:11:21;2.65;;;2.45;;
13102;SDS011;52970;46.752;17.108;2023-05-10T14:13:46;2.90;;;2.63;;
13102;SDS011;52970;46.752;17.108;2023-05-10T14:16:12;3.30;;;2.75;;
13102;SDS011;52970;46.752;17.108;2023-05-10T14:18:39;4.40;;;2.50;;
13102;SDS011;52970;46.752;17.108;2023-05-10T14:21:04;3.05;;;2.72;;
13102;SDS011;52970;46.752;17.108;2023-05-10T14:23:30;2.88;;;2.55;;
13102;SDS011;52970;46.752;17.108;2023-05-10T14:25:55;3.50;;;2.55;;
13102;SDS011;52970;46.752;17.108;2023-05-10T14:28:21;3.45;;;2.58;;
13102;SDS011;52970;46.752;17.108;2023-05-10T14:30:47;4.07;;;2.95;;
13102;SDS011;52970;46.752;17.108;2023-05-10T14:33:12;3.00;;;2.70;;
13102;SDS011;52970;46.752;17.108;2023-05-10T14:35:38;4.70;;;3.40;;
13102;SDS011;52970;46.752;17.108;2023-05-10T14:38:03;3.38;;;2.92;;
13102;SDS011;52970;46.752;17.108;2023-05-10T14:40:29;3.05;;;2.75;;
13102;SDS011;52970;46.752;17.108;2023-05-10T14:42:54;3.58;;;3.10;;
13102;SDS011;52970;46.752;17.108;2023-05-10T14:45:21;2.97;;;2.78;;
13102;SDS011;52970;46.752;17.108;2023-05-10T14:47:46;5.28;;;3.30;;
13102;SDS011;52970;46.752;17.108;2023-05-10T14:50:11;6.15;;;3.08;;
13102;SDS011;52970;46.752;17.108;2023-05-10T14:52:37;3.53;;;2.88;;
13102;SDS011;52970;46.752;17.108;2023-05-10T14:55:02;3.15;;;2.90;;
13102;SDS011;52970;46.752;17.108;2023-05-10T14:57:27;4.07;;;2.65;;
13102;SDS011;52970;46.752;17.108;2023-05-10T14:59:54;3.75;;;2.80;;
13102;SDS011;52970;46.752;17.108;2023-05-10T15:02:20;3.20;;;2.92;;
13102;SDS011;52970;46.752;17.108;2023-05-10T15:04:45;3.20;;;2.90;;
13102;SDS011;52970;46.752;17.108;2023-05-10T15:07:10;4.03;;;2.63;;
13102;SDS011;52970;46.752;17.108;2023-05-10T15:09:39;2.63;;;2.42;;